sensor_id;sensor_type;location;lat;lon;timestamp;P1;durP1;ratioP1;P2;durP2;ratioP2
31674;SDS011;18276;45.520;11.018;2023-01-15T00:02:11;14.38;;;8.98;;
31674;SDS011;18276;45.520;11.018;2023-01-15T00:04:42;16.70;;;9.68;;
31674;SDS011;18276;45.520;11.018;2023-01-15T00:07:09;13.85;;;8.80;;
31674;SDS011;18276;45.520;11.018;2023-01-15T00:09:36;17.52;;;8.90;;
31674;SDS011;18276;45.520;11.018;2023-01-15T00:12:03;14.45;;;9.23;;
31674;SDS011;18276;45.520;11.018;2023-01-15T00:14:30;17.13;;;8.88;;
31674;SDS011;18276;45.520;11.018;2023-01-15T00:16:57;15.68;;;9.65;;
31674;SDS011;18276;45.520;11.018;2023-01-15T00:19:24;15.40;;;9.02;;
31674;SDS011;18276;45.520;11.018;2023-01-15T00:21:51;17.55;;;9.27;;
31674;SDS011;18276;45.520;11.018;2023-01-15T00:24:19;13.15;;;8.77;;
31674;SDS011;18276;45.520;11.018;2023-01-15T00:27:04;14.15;;;8.48;;
31674;SDS011;18276;45.520;11.018;2023-01-15T00:29:50;18.40;;;8.98;;
31674;SDS011;18276;45.520;11.018;2023-01-15T00:32:17;16.80;;;9.45;;
31674;SDS011;18276;45.520;11.018;2023-01-15T00:34:44;18.52;;;9.68;;
31674;SDS011;18276;45.520;11.018;2023-01-15T00:37:10;16.17;;;9.32;;
31674;SDS011;18276;45.520;11.018;2023-01-15T00:39:37;13.43;;;8.57;;
31674;SDS011;18276;45.520;11.018;2023-01-15T00:42:04;16.05;;;9.23;;
31674;SDS011;18276;45.520;11.018;2023-01-15T00:44:31;15.15;;;9.32;;
31674;SDS011;18276;45.520;11.018;2023-01-15T00:46:59;19.73;;;9.95;;
31674;SDS011;18276;45.520;11.018;2023-01-15T00:49:26;17.95;;;10.45;;
31674;SDS011;18276;45.520;11.018;2023-01-15T00:51:53;14.90;;;9.70;;
31674;SDS011;18276;45.520;11.018;2023-01-15T00:54:20;18.77;;;11.20;;
31674;SDS011;18276;45.520;11.018;2023-01-15T00:56:47;17.65;;;9.48;;
31674;SDS011;18276;45.520;11.018;2023-01-15T00:59:14;19.88;;;9.98;;
31674;SDS011;18276;45.520;11.018;2023-01-15T01:01:41;18.05;;;9.73;;
31674;SDS011;18276;45.520;11.018;2023-01-15T01:04:10;16.85;;;9.18;;
31674;SDS011;18276;45.520;11.018;2023-01-15T01:06:37;15.73;;;9.65;;
31674;SDS011;18276;45.520;11.018;2023-01-15T01:09:04;16.95;;;9.95;;
31674;SDS011;18276;45.520;11.018;2023-01-15T01:11:31;15.07;;;8.98;;
31674;SDS011;18276;45.520;11.018;2023-01-15T01:14:00;18.13;;;9.20;;
31674;SDS011;18276;45.520;11.018;2023-01-15T01:16:29;17.00;;;9.70;;
31674;SDS011;18276;45.520;11.018;2023-01-15T01:19:08;16.48;;;8.73;;
31674;SDS011;18276;45.520;11.018;2023-01-15T01:21:37;16.67;;;9.47;;
31674;SDS011;18276;45.520;11.018;2023-01-15T01:24:05;18.35;;;9.38;;
31674;SDS011;18276;45.520;11.018;2023-01-15T01:26:33;15.13;;;8.60;;
31674;SDS011;18276;45.520;11.018;2023-01-15T01:29:01;17.50;;;9.73;;
31674;SDS011;18276;45.520;11.018;2023-01-15T01:31:31;16.90;;;9.85;;
31674;SDS011;18276;45.520;11.018;2023-01-15T01:33:58;16.52;;;9.82;;
31674;SDS011;18276;45.520;11.018;2023-01-15T01:36:35;15.93;;;8.95;;
31674;SDS011;18276;45.520;11.018;2023-01-15T01:39:04;17.17;;;9.70;;
31674;SDS011;18276;45.520;11.018;2023-01-15T01:41:33;15.70;;;9.48;;
31674;SDS011;18276;45.520;11.018;2023-01-15T01:44:01;14.43;;;8.32;;
31674;SDS011;18276;45.520;11.018;2023-01-15T01:46:34;15.93;;;8.63;;
31674;SDS011;18276;45.520;11.018;2023-01-15T01:49:08;12.57;;;8.20;;
31674;SDS011;18276;45.520;11.018;2023-01-15T01:51:38;14.68;;;8.23;;
31674;SDS011;18276;45.520;11.018;2023-01-15T01:54:09;17.15;;;8.45;;
31674;SDS011;18276;45.520;11.018;2023-01-15T01:56:38;18.95;;;8.98;;
31674;SDS011;18276;45.520;11.018;2023-01-15T01:59:05;14.10;;;8.95;;
31674;SDS011;18276;45.520;11.018;2023-01-15T02:01:34;14.48;;;9.43;;
31674;SDS011;18276;45.520;11.018;2023-01-15T02:04:02;15.55;;;9.25;;
31674;SDS011;18276;45.520;11.018;2023-01-15T02:06:32;21.33;;;10.52;;
31674;SDS011;18276;45.520;11.018;2023-01-15T02:09:00;19.63;;;10.98;;
31674;SDS011;18276;45.520;11.018;2023-01-15T02:11:28;20.83;;;11.10;;
31674;SDS011;18276;45.520;11.018;2023-01-15T02:13:59;18.75;;;10.73;;
31674;SDS011;18276;45.520;11.018;2023-01-15T02:16:39;27.13;;;14.88;;
31674;SDS011;18276;45.520;11.018;2023-01-15T02:19:19;19.13;;;10.57;;
31674;SDS011;18276;45.520;11.018;2023-01-15T02:25:01;22.50;;;12.48;;
31674;SDS011;18276;45.520;11.018;2023-01-15T02:27:50;21.95;;;12.82;;
31674;SDS011;18276;45.520;11.018;2023-01-15T02:30:27;19.00;;;11.98;;
31674;SDS011;18276;45.520;11.018;2023-01-15T02:33:10;19.10;;;10.02;;
31674;SDS011;18276;45.520;11.018;2023-01-15T02:35:56;18.50;;;10.48;;
31674;SDS011;18276;45.520;11.018;2023-01-15T02:38:35;15.57;;;9.93;;
31674;SDS011;18276;45.520;11.018;2023-01-15T02:41:07;15.13;;;8.70;;
31674;SDS011;18276;45.520;11.018;2023-01-15T02:43:47;18.45;;;10.13;;
31674;SDS011;18276;45.520;11.018;2023-01-15T02:46:21;27.83;;;12.45;;
31674;SDS011;18276;45.520;11.018;2023-01-15T02:48:54;16.13;;;9.60;;
31674;SDS011;18276;45.520;11.018;2023-01-15T02:51:30;16.48;;;9.65;;
31674;SDS011;18276;45.520;11.018;2023-01-15T02:54:07;18.05;;;9.98;;
31674;SDS011;18276;45.520;11.018;2023-01-15T02:56:39;16.42;;;9.35;;
31674;SDS011;18276;45.520;11.018;2023-01-15T02:59:09;14.13;;;9.25;;
31674;SDS011;18276;45.520;11.018;2023-01-15T03:01:49;14.20;;;9.15;;
31674;SDS011;18276;45.520;11.018;2023-01-15T03:04:21;16.98;;;9.82;;
31674;SDS011;18276;45.520;11.018;2023-01-15T03:07:02;14.13;;;8.38;;
31674;SDS011;18276;45.520;11.018;2023-01-15T03:09:32;15.90;;;9.23;;
31674;SDS011;18276;45.520;11.018;2023-01-15T03:15:02;15.80;;;9.45;;
31674;SDS011;18276;45.520;11.018;2023-01-15T03:17:57;13.88;;;8.35;;
31674;SDS011;18276;45.520;11.018;2023-01-15T03:20:26;13.80;;;8.48;;
31674;SDS011;18276;45.520;11.018;2023-01-15T03:22:58;12.32;;;8.27;;
31674;SDS011;18276;45.520;11.018;2023-01-15T03:25:38;13.55;;;8.50;;
31674;SDS011;18276;45.520;11.018;2023-01-15T03:28:09;17.33;;;8.77;;
31674;SDS011;18276;45.520;11.018;2023-01-15T03:30:38;13.73;;;9.02;;
31674;SDS011;18276;45.520;11.018;2023-01-15T03:33:05;13.07;;;8.57;;
31674;SDS011;18276;45.520;11.018;2023-01-15T03:35:46;13.98;;;8.80;;
31674;SDS011;18276;45.520;11.018;2023-01-15T03:38:45;14.82;;;8.15;;
31674;SDS011;18276;45.520;11.018;2023-01-15T03:47:36;13.63;;;7.53;;
31674;SDS011;18276;45.520;11.018;2023-01-15T04:01:10;12.20;;;7.28;;
31674;SDS011;18276;45.520;11.018;2023-01-15T04:03:40;13.35;;;7.68;;
31674;SDS011;18276;45.520;11.018;2023-01-15T04:06:09;14.73;;;8.07;;
31674;SDS011;18276;45.520;11.018;2023-01-15T04:08:38;12.02;;;8.05;;
31674;SDS011;18276;45.520;11.018;2023-01-15T04:11:07;15.48;;;8.40;;
31674;SDS011;18276;45.520;11.018;2023-01-15T04:13:45;11.43;;;7.53;;
31674;SDS011;18276;45.520;11.018;2023-01-15T04:16:29;13.38;;;7.32;;
31674;SDS011;18276;45.520;11.018;2023-01-15T04:18:57;14.63;;;7.50;;
31674;SDS011;18276;45.520;11.018;2023-01-15T04:21:26;11.70;;;7.72;;
31674;SDS011;18276;45.520;11.018;2023-01-15T04:23:53;10.93;;;7.13;;
31674;SDS011;18276;45.520;11.018;2023-01-15T04:26:20;10.95;;;6.72;;
31674;SDS011;18276;45.520;11.018;2023-01-15T04:28:47;12.25;;;7.57;;
31674;SDS011;18276;45.520;11.018;2023-01-15T04:31:18;11.65;;;7.45;;
31674;SDS011;18276;45.520;11.018;2023-01-15T04:33:45;11.98;;;8.23;;
31674;SDS011;18276;45.520;11.018;2023-01-15T04:36:12;17.15;;;9.45;;
31674;SDS011;18276;45.520;11.018;2023-01-15T04:38:39;18.55;;;9.10;;
31674;SDS011;18276;45.520;11.018;2023-01-15T04:41:06;18.17;;;9.57;;
31674;SDS011;18276;45.520;11.018;2023-01-15T04:43:53;13.60;;;9.02;;
31674;SDS011;18276;45.520;11.018;2023-01-15T04:46:39;17.00;;;8.23;;
31674;SDS011;18276;45.520;11.018;2023-01-15T04:49:09;18.67;;;8.70;;
31674;SDS011;18276;45.520;11.018;2023-01-15T04:51:39;16.27;;;8.98;;
31674;SDS011;18276;45.520;11.018;2023-01-15T04:54:07;16.63;;;8.98;;
31674;SDS011;18276;45.520;11.018;2023-01-15T04:56:37;12.45;;;8.15;;
31674;SDS011;18276;45.520;11.018;2023-01-15T04:59:07;13.23;;;8.57;;
31674;SDS011;18276;45.520;11.018;2023-01-15T05:01:34;15.27;;;8.40;;
31674;SDS011;18276;45.520;11.018;2023-01-15T05:04:03;13.13;;;7.32;;
31674;SDS011;18276;45.520;11.018;2023-01-15T05:06:30;13.50;;;7.45;;
31674;SDS011;18276;45.520;11.018;2023-01-15T05:08:58;12.25;;;8.15;;
31674;SDS011;18276;45.520;11.018;2023-01-15T05:11:26;18.98;;;8.18;;
31674;SDS011;18276;45.520;11.018;2023-01-15T05:13:54;16.83;;;8.75;;
31674;SDS011;18276;45.520;11.018;2023-01-15T05:16:25;13.35;;;8.25;;
31674;SDS011;18276;45.520;11.018;2023-01-15T05:18:55;13.90;;;9.00;;
31674;SDS011;18276;45.520;11.018;2023-01-15T05:21:30;14.30;;;8.75;;
31674;SDS011;18276;45.520;11.018;2023-01-15T05:24:00;13.90;;;8.73;;
31674;SDS011;18276;45.520;11.018;2023-01-15T05:26:33;15.40;;;8.75;;
31674;SDS011;18276;45.520;11.018;2023-01-15T05:29:01;17.35;;;8.48;;
31674;SDS011;18276;45.520;11.018;2023-01-15T05:31:30;14.88;;;8.40;;
31674;SDS011;18276;45.520;11.018;2023-01-15T05:33:59;13.32;;;8.55;;
31674;SDS011;18276;45.520;11.018;2023-01-15T05:36:27;15.13;;;7.45;;
31674;SDS011;18276;45.520;11.018;2023-01-15T05:38:56;13.30;;;7.90;;
31674;SDS011;18276;45.520;11.018;2023-01-15T05:41:27;13.95;;;9.02;;
31674;SDS011;18276;45.520;11.018;2023-01-15T05:44:17;16.00;;;8.90;;
31674;SDS011;18276;45.520;11.018;2023-01-15T05:46:49;16.35;;;9.13;;
31674;SDS011;18276;45.520;11.018;2023-01-15T05:49:19;13.63;;;8.20;;
31674;SDS011;18276;45.520;11.018;2023-01-15T05:51:51;12.45;;;7.57;;
31674;SDS011;18276;45.520;11.018;2023-01-15T05:54:20;17.98;;;8.30;;
31674;SDS011;18276;45.520;11.018;2023-01-15T05:56:49;16.38;;;7.88;;
31674;SDS011;18276;45.520;11.018;2023-01-15T05:59:16;16.45;;;8.40;;
31674;SDS011;18276;45.520;11.018;2023-01-15T06:01:50;13.50;;;8.15;;
31674;SDS011;18276;45.520;11.018;2023-01-15T06:04:18;12.55;;;8.00;;
31674;SDS011;18276;45.520;11.018;2023-01-15T06:06:50;12.30;;;7.85;;
31674;SDS011;18276;45.520;11.018;2023-01-15T06:09:19;13.20;;;8.30;;
31674;SDS011;18276;45.520;11.018;2023-01-15T06:11:48;15.05;;;8.57;;
31674;SDS011;18276;45.520;11.018;2023-01-15T06:14:15;20.17;;;8.50;;
31674;SDS011;18276;45.520;11.018;2023-01-15T06:16:43;13.85;;;8.32;;
31674;SDS011;18276;45.520;11.018;2023-01-15T06:19:11;12.90;;;8.00;;
31674;SDS011;18276;45.520;11.018;2023-01-15T06:21:39;12.93;;;7.65;;
31674;SDS011;18276;45.520;11.018;2023-01-15T06:24:07;16.05;;;8.50;;
31674;SDS011;18276;45.520;11.018;2023-01-15T06:26:36;15.35;;;8.15;;
31674;SDS011;18276;45.520;11.018;2023-01-15T06:29:04;15.60;;;8.15;;
31674;SDS011;18276;45.520;11.018;2023-01-15T06:31:32;13.15;;;8.43;;
31674;SDS011;18276;45.520;11.018;2023-01-15T06:33:59;13.30;;;8.20;;
31674;SDS011;18276;45.520;11.018;2023-01-15T06:36:26;11.90;;;8.07;;
31674;SDS011;18276;45.520;11.018;2023-01-15T06:38:53;15.68;;;9.05;;
31674;SDS011;18276;45.520;11.018;2023-01-15T06:41:22;16.00;;;8.18;;
31674;SDS011;18276;45.520;11.018;2023-01-15T06:44:10;20.42;;;11.25;;
31674;SDS011;18276;45.520;11.018;2023-01-15T06:47:00;16.15;;;9.52;;
31674;SDS011;18276;45.520;11.018;2023-01-15T06:49:47;15.77;;;8.85;;
31674;SDS011;18276;45.520;11.018;2023-01-15T06:52:15;15.35;;;9.25;;
31674;SDS011;18276;45.520;11.018;2023-01-15T06:54:42;18.10;;;9.73;;
31674;SDS011;18276;45.520;11.018;2023-01-15T06:57:10;18.63;;;9.88;;
31674;SDS011;18276;45.520;11.018;2023-01-15T06:59:37;17.75;;;10.30;;
31674;SDS011;18276;45.520;11.018;2023-01-15T07:02:04;21.17;;;10.20;;
31674;SDS011;18276;45.520;11.018;2023-01-15T07:04:31;20.60;;;10.52;;
31674;SDS011;18276;45.520;11.018;2023-01-15T07:06:58;20.90;;;11.00;;
31674;SDS011;18276;45.520;11.018;2023-01-15T07:09:25;19.90;;;10.77;;
31674;SDS011;18276;45.520;11.018;2023-01-15T07:11:52;17.25;;;10.50;;
31674;SDS011;18276;45.520;11.018;2023-01-15T07:14:20;17.00;;;10.52;;
31674;SDS011;18276;45.520;11.018;2023-01-15T07:16:49;22.98;;;12.25;;
31674;SDS011;18276;45.520;11.018;2023-01-15T07:19:17;21.30;;;12.43;;
31674;SDS011;18276;45.520;11.018;2023-01-15T07:21:45;24.42;;;12.65;;
31674;SDS011;18276;45.520;11.018;2023-01-15T07:24:12;23.38;;;13.48;;
31674;SDS011;18276;45.520;11.018;2023-01-15T07:26:40;22.10;;;13.23;;
31674;SDS011;18276;45.520;11.018;2023-01-15T07:29:08;24.20;;;13.63;;
31674;SDS011;18276;45.520;11.018;2023-01-15T07:31:36;20.92;;;13.93;;
31674;SDS011;18276;45.520;11.018;2023-01-15T07:34:04;23.33;;;13.20;;
31674;SDS011;18276;45.520;11.018;2023-01-15T07:36:31;20.83;;;13.10;;
31674;SDS011;18276;45.520;11.018;2023-01-15T07:38:58;22.05;;;14.05;;
31674;SDS011;18276;45.520;11.018;2023-01-15T07:41:25;21.02;;;13.20;;
31674;SDS011;18276;45.520;11.018;2023-01-15T07:44:10;32.33;;;16.63;;
31674;SDS011;18276;45.520;11.018;2023-01-15T07:46:56;35.55;;;17.88;;
31674;SDS011;18276;45.520;11.018;2023-01-15T07:49:42;32.30;;;15.00;;
31674;SDS011;18276;45.520;11.018;2023-01-15T07:52:16;19.95;;;13.18;;
31674;SDS011;18276;45.520;11.018;2023-01-15T07:54:48;23.80;;;11.63;;
31674;SDS011;18276;45.520;11.018;2023-01-15T07:57:17;20.75;;;12.55;;
31674;SDS011;18276;45.520;11.018;2023-01-15T07:59:46;20.98;;;11.90;;
31674;SDS011;18276;45.520;11.018;2023-01-15T08:02:14;23.60;;;14.10;;
31674;SDS011;18276;45.520;11.018;2023-01-15T08:04:42;25.35;;;15.45;;
31674;SDS011;18276;45.520;11.018;2023-01-15T08:07:09;27.75;;;15.88;;
31674;SDS011;18276;45.520;11.018;2023-01-15T08:09:38;28.73;;;17.30;;
31674;SDS011;18276;45.520;11.018;2023-01-15T08:12:05;25.70;;;15.07;;
31674;SDS011;18276;45.520;11.018;2023-01-15T08:14:51;26.20;;;15.82;;
31674;SDS011;18276;45.520;11.018;2023-01-15T08:17:53;29.98;;;17.17;;
31674;SDS011;18276;45.520;11.018;2023-01-15T08:20:22;32.60;;;18.52;;
31674;SDS011;18276;45.520;11.018;2023-01-15T08:22:51;32.65;;;18.80;;
31674;SDS011;18276;45.520;11.018;2023-01-15T08:25:19;34.53;;;18.45;;
31674;SDS011;18276;45.520;11.018;2023-01-15T08:27:48;32.33;;;19.48;;
31674;SDS011;18276;45.520;11.018;2023-01-15T08:30:17;44.70;;;25.88;;
31674;SDS011;18276;45.520;11.018;2023-01-15T08:32:46;48.97;;;28.98;;
31674;SDS011;18276;45.520;11.018;2023-01-15T08:35:13;33.38;;;19.63;;
31674;SDS011;18276;45.520;11.018;2023-01-15T08:37:40;37.80;;;21.75;;
31674;SDS011;18276;45.520;11.018;2023-01-15T08:40:08;37.33;;;23.08;;
31674;SDS011;18276;45.520;11.018;2023-01-15T08:42:37;39.85;;;21.63;;
31674;SDS011;18276;45.520;11.018;2023-01-15T08:45:04;38.28;;;21.35;;
31674;SDS011;18276;45.520;11.018;2023-01-15T08:47:33;35.00;;;21.10;;
31674;SDS011;18276;45.520;11.018;2023-01-15T08:50:00;36.67;;;20.95;;
31674;SDS011;18276;45.520;11.018;2023-01-15T08:52:27;33.13;;;19.90;;
31674;SDS011;18276;45.520;11.018;2023-01-15T08:54:54;34.42;;;19.98;;
31674;SDS011;18276;45.520;11.018;2023-01-15T08:57:21;33.85;;;21.38;;
31674;SDS011;18276;45.520;11.018;2023-01-15T08:59:48;36.47;;;22.45;;
31674;SDS011;18276;45.520;11.018;2023-01-15T09:02:15;37.50;;;20.48;;
31674;SDS011;18276;45.520;11.018;2023-01-15T09:04:43;34.95;;;20.60;;
31674;SDS011;18276;45.520;11.018;2023-01-15T09:07:10;33.47;;;21.27;;
31674;SDS011;18276;45.520;11.018;2023-01-15T09:09:37;40.28;;;23.83;;
31674;SDS011;18276;45.520;11.018;2023-01-15T09:12:05;35.50;;;23.05;;
31674;SDS011;18276;45.520;11.018;2023-01-15T09:14:32;36.45;;;20.35;;
31674;SDS011;18276;45.520;11.018;2023-01-15T09:17:19;35.28;;;20.67;;
31674;SDS011;18276;45.520;11.018;2023-01-15T09:19:46;31.35;;;19.25;;
31674;SDS011;18276;45.520;11.018;2023-01-15T09:22:13;31.70;;;19.13;;
31674;SDS011;18276;45.520;11.018;2023-01-15T09:24:40;39.40;;;22.27;;
31674;SDS011;18276;45.520;11.018;2023-01-15T09:27:09;41.47;;;21.17;;
31674;SDS011;18276;45.520;11.018;2023-01-15T09:29:37;35.45;;;20.83;;
31674;SDS011;18276;45.520;11.018;2023-01-15T09:32:04;38.72;;;22.48;;
31674;SDS011;18276;45.520;11.018;2023-01-15T09:34:31;37.88;;;22.48;;
31674;SDS011;18276;45.520;11.018;2023-01-15T09:36:58;35.85;;;22.80;;
31674;SDS011;18276;45.520;11.018;2023-01-15T09:39:25;40.67;;;22.98;;
31674;SDS011;18276;45.520;11.018;2023-01-15T09:42:02;32.95;;;19.33;;
31674;SDS011;18276;45.520;11.018;2023-01-15T09:47:26;31.92;;;18.85;;
31674;SDS011;18276;45.520;11.018;2023-01-15T09:52:55;27.45;;;17.73;;
31674;SDS011;18276;45.520;11.018;2023-01-15T09:55:40;27.50;;;17.75;;
31674;SDS011;18276;45.520;11.018;2023-01-15T09:58:13;33.30;;;18.98;;
31674;SDS011;18276;45.520;11.018;2023-01-15T10:00:43;31.92;;;19.88;;
31674;SDS011;18276;45.520;11.018;2023-01-15T10:03:30;39.70;;;20.52;;
31674;SDS011;18276;45.520;11.018;2023-01-15T10:09:03;39.22;;;21.63;;
31674;SDS011;18276;45.520;11.018;2023-01-15T10:11:41;37.30;;;23.80;;
31674;SDS011;18276;45.520;11.018;2023-01-15T10:14:35;40.50;;;22.20;;
31674;SDS011;18276;45.520;11.018;2023-01-15T10:17:13;36.80;;;21.92;;
31674;SDS011;18276;45.520;11.018;2023-01-15T10:19:46;37.50;;;20.00;;
31674;SDS011;18276;45.520;11.018;2023-01-15T10:22:26;37.40;;;19.90;;
31674;SDS011;18276;45.520;11.018;2023-01-15T10:25:10;37.23;;;19.67;;
31674;SDS011;18276;45.520;11.018;2023-01-15T10:27:44;34.78;;;19.92;;
31674;SDS011;18276;45.520;11.018;2023-01-15T10:32:53;37.15;;;21.15;;
31674;SDS011;18276;45.520;11.018;2023-01-15T10:38:32;30.00;;;19.65;;
31674;SDS011;18276;45.520;11.018;2023-01-15T10:43:54;45.83;;;26.80;;
31674;SDS011;18276;45.520;11.018;2023-01-15T10:46:24;40.47;;;26.27;;
31674;SDS011;18276;45.520;11.018;2023-01-15T10:49:11;40.30;;;25.02;;
31674;SDS011;18276;45.520;11.018;2023-01-15T10:51:45;34.35;;;21.30;;
31674;SDS011;18276;45.520;11.018;2023-01-15T10:59:35;40.53;;;22.23;;
31674;SDS011;18276;45.520;11.018;2023-01-15T11:02:28;36.97;;;21.42;;
31674;SDS011;18276;45.520;11.018;2023-01-15T11:05:18;34.53;;;20.35;;
31674;SDS011;18276;45.520;11.018;2023-01-15T11:07:47;33.72;;;20.30;;
31674;SDS011;18276;45.520;11.018;2023-01-15T11:10:36;35.55;;;21.35;;
31674;SDS011;18276;45.520;11.018;2023-01-15T11:16:14;37.70;;;22.48;;
31674;SDS011;18276;45.520;11.018;2023-01-15T11:19:04;36.30;;;22.08;;
31674;SDS011;18276;45.520;11.018;2023-01-15T11:21:57;36.07;;;22.33;;
31674;SDS011;18276;45.520;11.018;2023-01-15T11:24:26;41.45;;;23.67;;
31674;SDS011;18276;45.520;11.018;2023-01-15T11:26:56;39.55;;;25.92;;
31674;SDS011;18276;45.520;11.018;2023-01-15T11:29:34;38.90;;;22.40;;
31674;SDS011;18276;45.520;11.018;2023-01-15T11:32:02;38.28;;;22.45;;
31674;SDS011;18276;45.520;11.018;2023-01-15T11:34:50;37.88;;;22.05;;
31674;SDS011;18276;45.520;11.018;2023-01-15T11:37:19;40.80;;;21.65;;
31674;SDS011;18276;45.520;11.018;2023-01-15T11:39:55;32.22;;;20.20;;
31674;SDS011;18276;45.520;11.018;2023-01-15T11:42:29;40.97;;;21.85;;
31674;SDS011;18276;45.520;11.018;2023-01-15T11:45:16;39.58;;;21.85;;
31674;SDS011;18276;45.520;11.018;2023-01-15T11:48:12;38.95;;;22.10;;
31674;SDS011;18276;45.520;11.018;2023-01-15T11:51:02;35.15;;;22.02;;
31674;SDS011;18276;45.520;11.018;2023-01-15T11:53:54;38.97;;;22.40;;
31674;SDS011;18276;45.520;11.018;2023-01-15T11:56:39;39.85;;;24.17;;
31674;SDS011;18276;45.520;11.018;2023-01-15T11:59:09;37.45;;;22.88;;
31674;SDS011;18276;45.520;11.018;2023-01-15T12:01:44;40.33;;;25.10;;
31674;SDS011;18276;45.520;11.018;2023-01-15T12:04:38;41.15;;;25.20;;
31674;SDS011;18276;45.520;11.018;2023-01-15T12:07:22;42.45;;;24.88;;
31674;SDS011;18276;45.520;11.018;2023-01-15T12:12:31;43.88;;;27.73;;
31674;SDS011;18276;45.520;11.018;2023-01-15T12:15:17;47.63;;;25.98;;
31674;SDS011;18276;45.520;11.018;2023-01-15T12:21:04;43.88;;;26.13;;
31674;SDS011;18276;45.520;11.018;2023-01-15T12:23:57;44.10;;;26.30;;
31674;SDS011;18276;45.520;11.018;2023-01-15T12:27:00;49.95;;;28.98;;
31674;SDS011;18276;45.520;11.018;2023-01-15T12:30:12;51.40;;;31.08;;
31674;SDS011;18276;45.520;11.018;2023-01-15T12:32:45;50.78;;;30.67;;
31674;SDS011;18276;45.520;11.018;2023-01-15T12:35:24;56.88;;;34.38;;
31674;SDS011;18276;45.520;11.018;2023-01-15T12:40:57;52.80;;;30.40;;
31674;SDS011;18276;45.520;11.018;2023-01-15T12:43:27;57.75;;;31.20;;
31674;SDS011;18276;45.520;11.018;2023-01-15T12:46:14;52.05;;;30.70;;
31674;SDS011;18276;45.520;11.018;2023-01-15T12:51:47;50.88;;;28.90;;
31674;SDS011;18276;45.520;11.018;2023-01-15T12:54:47;51.38;;;29.60;;
31674;SDS011;18276;45.520;11.018;2023-01-15T12:57:23;56.78;;;32.17;;
31674;SDS011;18276;45.520;11.018;2023-01-15T13:10:54;55.83;;;30.88;;
31674;SDS011;18276;45.520;11.018;2023-01-15T13:13:28;57.53;;;32.40;;
31674;SDS011;18276;45.520;11.018;2023-01-15T13:16:07;75.45;;;40.22;;
31674;SDS011;18276;45.520;11.018;2023-01-15T13:18:38;60.17;;;34.85;;
31674;SDS011;18276;45.520;11.018;2023-01-15T13:21:29;67.65;;;36.15;;
31674;SDS011;18276;45.520;11.018;2023-01-15T13:29:49;61.03;;;34.08;;
31674;SDS011;18276;45.520;11.018;2023-01-15T13:32:18;70.72;;;40.22;;
31674;SDS011;18276;45.520;11.018;2023-01-15T13:35:01;62.47;;;34.00;;
31674;SDS011;18276;45.520;11.018;2023-01-15T13:37:42;69.10;;;36.67;;
31674;SDS011;18276;45.520;11.018;2023-01-15T13:40:16;74.50;;;41.88;;
31674;SDS011;18276;45.520;11.018;2023-01-15T13:42:58;74.75;;;41.55;;
31674;SDS011;18276;45.520;11.018;2023-01-15T13:45:41;82.00;;;45.50;;
31674;SDS011;18276;45.520;11.018;2023-01-15T13:48:14;77.03;;;44.00;;
31674;SDS011;18276;45.520;11.018;2023-01-15T13:50:54;81.10;;;45.75;;
31674;SDS011;18276;45.520;11.018;2023-01-15T13:56:11;80.60;;;46.72;;
31674;SDS011;18276;45.520;11.018;2023-01-15T13:58:52;77.97;;;46.40;;
31674;SDS011;18276;45.520;11.018;2023-01-15T14:01:22;88.47;;;51.45;;
31674;SDS011;18276;45.520;11.018;2023-01-15T14:04:00;93.55;;;52.80;;
31674;SDS011;18276;45.520;11.018;2023-01-15T14:09:25;83.20;;;45.58;;
31674;SDS011;18276;45.520;11.018;2023-01-15T14:18:19;86.78;;;48.15;;
31674;SDS011;18276;45.520;11.018;2023-01-15T14:29:02;104.13;;;55.72;;
31674;SDS011;18276;45.520;11.018;2023-01-15T14:34:23;103.18;;;52.47;;
31674;SDS011;18276;45.520;11.018;2023-01-15T14:36:57;198.65;;;59.22;;
31674;SDS011;18276;45.520;11.018;2023-01-15T15:06:53;94.28;;;49.30;;
31674;SDS011;18276;45.520;11.018;2023-01-15T15:09:39;88.43;;;47.83;;
31674;SDS011;18276;45.520;11.018;2023-01-15T15:12:41;88.15;;;49.47;;
31674;SDS011;18276;45.520;11.018;2023-01-15T15:18:01;83.75;;;48.35;;
31674;SDS011;18276;45.520;11.018;2023-01-15T15:26:17;86.25;;;44.70;;
31674;SDS011;18276;45.520;11.018;2023-01-15T15:28:56;93.65;;;51.78;;
31674;SDS011;18276;45.520;11.018;2023-01-15T15:31:27;94.20;;;52.47;;
31674;SDS011;18276;45.520;11.018;2023-01-15T15:34:00;112.07;;;58.50;;
31674;SDS011;18276;45.520;11.018;2023-01-15T15:36:28;127.43;;;65.03;;
31674;SDS011;18276;45.520;11.018;2023-01-15T15:38:58;355.80;;;85.00;;
31674;SDS011;18276;45.520;11.018;2023-01-15T15:41:31;250.57;;;70.65;;
31674;SDS011;18276;45.520;11.018;2023-01-15T15:44:39;562.15;;;91.65;;
31674;SDS011;18276;45.520;11.018;2023-01-15T15:47:40;231.77;;;65.00;;
31674;SDS011;18276;45.520;11.018;2023-01-15T15:52:57;265.48;;;79.40;;
31674;SDS011;18276;45.520;11.018;2023-01-15T15:55:25;170.82;;;60.03;;
31674;SDS011;18276;45.520;11.018;2023-01-15T15:57:59;159.65;;;65.90;;
31674;SDS011;18276;45.520;11.018;2023-01-15T16:00:29;139.55;;;62.70;;
31674;SDS011;18276;45.520;11.018;2023-01-15T16:03:00;119.75;;;63.80;;
31674;SDS011;18276;45.520;11.018;2023-01-15T16:05:32;301.80;;;133.10;;
31674;SDS011;18276;45.520;11.018;2023-01-15T16:10:39;101.88;;;54.20;;
31674;SDS011;18276;45.520;11.018;2023-01-15T16:13:06;108.13;;;55.55;;
31674;SDS011;18276;45.520;11.018;2023-01-15T16:15:47;101.95;;;51.35;;
31674;SDS011;18276;45.520;11.018;2023-01-15T16:21:16;103.13;;;51.97;;
31674;SDS011;18276;45.520;11.018;2023-01-15T16:23:55;98.80;;;50.65;;
31674;SDS011;18276;45.520;11.018;2023-01-15T16:29:15;100.05;;;51.85;;
31674;SDS011;18276;45.520;11.018;2023-01-15T16:34:17;101.13;;;51.63;;
31674;SDS011;18276;45.520;11.018;2023-01-15T16:36:46;92.78;;;48.28;;
31674;SDS011;18276;45.520;11.018;2023-01-15T16:39:19;97.70;;;50.47;;
31674;SDS011;18276;45.520;11.018;2023-01-15T16:41:50;97.00;;;48.47;;
31674;SDS011;18276;45.520;11.018;2023-01-15T16:44:30;98.10;;;52.63;;
31674;SDS011;18276;45.520;11.018;2023-01-15T16:47:04;89.70;;;47.55;;
31674;SDS011;18276;45.520;11.018;2023-01-15T16:49:32;81.20;;;44.58;;
31674;SDS011;18276;45.520;11.018;2023-01-15T16:52:01;88.15;;;47.15;;
31674;SDS011;18276;45.520;11.018;2023-01-15T16:56:59;92.15;;;48.70;;
31674;SDS011;18276;45.520;11.018;2023-01-15T17:04:42;83.85;;;46.03;;
31674;SDS011;18276;45.520;11.018;2023-01-15T17:09:48;114.85;;;59.47;;
31674;SDS011;18276;45.520;11.018;2023-01-15T17:14:53;106.57;;;54.53;;
31674;SDS011;18276;45.520;11.018;2023-01-15T17:19:47;104.53;;;55.70;;
31674;SDS011;18276;45.520;11.018;2023-01-15T17:22:15;103.18;;;55.20;;
31674;SDS011;18276;45.520;11.018;2023-01-15T17:24:51;97.85;;;53.80;;
31674;SDS011;18276;45.520;11.018;2023-01-15T17:27:19;102.10;;;54.80;;
31674;SDS011;18276;45.520;11.018;2023-01-15T17:29:45;100.05;;;52.17;;
31674;SDS011;18276;45.520;11.018;2023-01-15T17:32:24;82.90;;;46.90;;
31674;SDS011;18276;45.520;11.018;2023-01-15T17:37:50;75.80;;;45.10;;